createdAt,value
2019-05-28T00:01:10.204Z,97944.50
2019-05-28T00:03:38.856Z,97949.31
2019-05-28T00:06:07.485Z,97950.23
2019-05-28T00:08:36.196Z,97947.21
2019-05-28T00:11:04.780Z,97945.52
2019-05-28T00:13:33.294Z,97935.66
2019-05-28T00:16:01.741Z,97936.06
2019-05-28T00:18:30.353Z,97939.95
2019-05-28T00:20:58.795Z,97934.69
2019-05-28T00:23:27.354Z,97932.08
2019-05-28T00:25:55.853Z,97933.09
2019-05-28T00:28:24.429Z,97937.43
2019-05-28T00:30:52.920Z,97932.36
2019-05-28T00:33:21.498Z,97930.02
2019-05-28T00:35:49.978Z,97921.64
2019-05-28T00:38:18.559Z,97922.88
2019-05-28T00:40:47.122Z,97916.27
2019-05-28T00:43:15.564Z,97917.70
2019-05-28T00:45:44.183Z,97911.47
2019-05-28T00:48:12.825Z,97907.02
2019-05-28T00:50:41.467Z,97905.23
2019-05-28T00:53:10.059Z,97905.73
2019-05-28T00:55:39.742Z,97896.04
2019-05-28T00:58:09.951Z,97888.36
2019-05-28T01:00:49.970Z,97892.91
2019-05-28T01:03:18.858Z,97893.48
2019-05-28T01:05:47.830Z,97899.09
2019-05-28T01:08:16.481Z,97899.66
2019-05-28T01:10:45.857Z,97896.80
2019-05-28T01:13:14.421Z,97893.42
2019-05-28T01:15:43.014Z,97889.94
2019-05-28T01:18:11.780Z,97886.88
2019-05-28T01:20:40.234Z,97885.03
2019-05-28T01:23:08.762Z,97881.41
2019-05-28T01:25:37.509Z,97878.76
2019-05-28T01:28:06.209Z,97878.70
2019-05-28T01:30:34.789Z,97877.53
2019-05-28T01:33:03.626Z,97875.33
2019-05-28T01:35:32.080Z,97875.13
2019-05-28T01:38:00.522Z,97881.27
2019-05-28T01:40:29.020Z,97876.39
2019-05-28T01:42:57.642Z,97875.53
2019-05-28T01:45:26.110Z,97873.34
2019-05-28T01:47:57.546Z,97876.97
2019-05-28T01:50:24.923Z,97871.24
2019-05-28T01:52:53.576Z,97871.39
2019-05-28T01:55:22.296Z,97870.92
2019-05-28T01:57:51.111Z,97872.78
2019-05-28T02:00:20.616Z,97868.02
2019-05-28T02:02:49.086Z,97862.39
2019-05-28T02:05:17.956Z,97868.62
2019-05-28T02:07:46.449Z,97868.02
2019-05-28T02:10:15.927Z,97870.88
2019-05-28T02:12:44.423Z,97865.27
2019-05-28T02:15:13.817Z,97870.17
2019-05-28T02:17:42.334Z,97867.86
2019-05-28T02:20:11.891Z,97874.09
2019-05-28T02:22:40.456Z,97870.52
2019-05-28T02:25:09.883Z,97868.78
2019-05-28T02:27:38.452Z,97873.02
2019-05-28T02:30:10.098Z,97869.59
2019-05-28T02:32:39.157Z,97870.86
2019-05-28T02:35:08.381Z,97868.87
2019-05-28T02:37:36.975Z,97866.94
2019-05-28T02:40:07.624Z,97865.81
2019-05-28T02:42:36.578Z,97873.23
2019-05-28T02:45:09.855Z,97864.34
2019-05-28T02:47:38.550Z,97871.91
2019-05-28T02:50:09.746Z,97875.07
2019-05-28T02:52:39.502Z,97871.59
2019-05-28T02:55:10.126Z,97872.55
2019-05-28T02:57:40.626Z,97877.36
2019-05-28T03:00:14.597Z,97867.14
2019-05-28T03:02:46.075Z,97878.14
2019-05-28T03:05:15.642Z,97876.91
2019-05-28T03:07:47.308Z,97878.55
2019-05-28T03:10:18.806Z,97885.84
2019-05-28T03:12:47.314Z,97876.91
2019-05-28T03:15:16.252Z,97878.64
2019-05-28T03:17:47.158Z,97874.97
2019-05-28T03:20:16.075Z,97877.82
2019-05-28T03:22:46.229Z,97878.84
2019-05-28T03:25:14.899Z,97883.23
2019-05-28T03:27:43.683Z,97880.22
2019-05-28T03:30:13.704Z,97885.13
2019-05-28T03:32:42.273Z,97885.53
2019-05-28T03:35:10.997Z,97886.66
2019-05-28T03:37:42.437Z,97885.48
2019-05-28T03:40:12.911Z,97888.13
2019-05-28T03:42:41.661Z,97886.46
2019-05-28T03:45:11.140Z,97889.38
2019-05-28T03:47:39.642Z,97882.58
2019-05-28T03:50:08.968Z,97880.44
2019-05-28T03:52:37.459Z,97883.96
2019-05-28T03:55:07.522Z,97885.23
2019-05-28T03:57:36.157Z,97886.71
2019-05-28T04:00:06.280Z,97892.02
2019-05-28T04:02:34.729Z,97881.81
2019-05-28T04:05:03.491Z,97882.99
2019-05-28T04:07:31.925Z,97890.45
2019-05-28T04:10:00.487Z,97892.25
2019-05-28T04:12:29.129Z,97893.16
2019-05-28T04:14:57.871Z,97893.52
2019-05-28T04:17:26.514Z,97894.34
2019-05-28T04:19:55.006Z,97891.17
2019-05-28T04:22:23.570Z,97888.20
2019-05-28T04:24:52.153Z,97892.55
2019-05-28T04:27:20.640Z,97893.27
2019-05-28T04:29:49.136Z,97896.34
2019-05-28T04:32:17.704Z,97898.23
2019-05-28T04:34:46.158Z,97906.86
2019-05-28T04:37:14.798Z,97904.05
2019-05-28T04:39:43.253Z,97900.84
2019-05-28T04:42:11.903Z,97899.34
2019-05-28T04:44:40.593Z,97901.50
2019-05-28T04:47:09.212Z,97904.31
2019-05-28T04:49:37.886Z,97910.19
2019-05-28T04:52:06.615Z,97903.34
2019-05-28T04:54:35.057Z,97902.88
2019-05-28T04:57:03.749Z,97896.58
2019-05-28T04:59:32.360Z,97892.10
2019-05-28T05:02:01.051Z,97896.99
2019-05-28T05:04:29.503Z,97904.26
2019-05-28T05:06:58.161Z,97902.31
2019-05-28T05:09:27.332Z,97903.66
2019-05-28T05:11:55.815Z,97905.23
2019-05-28T05:14:24.246Z,97905.08
2019-05-28T05:16:52.855Z,97900.92
2019-05-28T05:19:21.504Z,97891.98
2019-05-28T05:21:50.246Z,97892.67
2019-05-28T05:24:18.894Z,97891.70
2019-05-28T05:26:47.559Z,97900.96
2019-05-28T05:29:16.053Z,97902.23
2019-05-28T05:31:44.623Z,97905.72
2019-05-28T05:34:13.116Z,97907.20
2019-05-28T05:36:41.691Z,97912.33
2019-05-28T05:39:10.578Z,97906.60
2019-05-28T05:41:39.176Z,97914.58
2019-05-28T05:44:07.801Z,97912.67
2019-05-28T05:46:36.240Z,97922.19
2019-05-28T05:49:04.968Z,97918.97
2019-05-28T05:51:33.499Z,97918.48
2019-05-28T05:54:02.229Z,97922.94
2019-05-28T05:56:30.873Z,97918.15
2019-05-28T05:58:59.636Z,97920.30
2019-05-28T06:01:28.247Z,97923.34
2019-05-28T06:03:56.990Z,97924.29
2019-05-28T06:06:25.627Z,97928.28
2019-05-28T06:08:54.347Z,97927.00
2019-05-28T06:11:22.999Z,97929.61
2019-05-28T06:13:51.703Z,97932.11
2019-05-28T06:16:20.432Z,97929.67
2019-05-28T06:18:49.073Z,97929.21
2019-05-28T06:21:19.062Z,97930.17
2019-05-28T06:23:47.951Z,97932.28
2019-05-28T06:26:16.686Z,97933.29
2019-05-28T06:28:45.334Z,97932.66
2019-05-28T06:31:14.056Z,97936.60
2019-05-28T06:33:55.705Z,97938.61
2019-05-28T06:36:13.002Z,97938.25
2019-05-28T06:38:41.605Z,97933.24
2019-05-28T06:41:10.286Z,97930.27
2019-05-28T06:43:39.059Z,97927.75
2019-05-28T06:46:07.669Z,97928.06
2019-05-28T06:48:36.159Z,97926.83
2019-05-28T06:51:04.904Z,97927.13
2019-05-28T06:53:33.458Z,97937.06
2019-05-28T06:56:02.181Z,97934.70
2019-05-28T06:58:39.462Z,97934.81
2019-05-28T07:01:01.247Z,97934.70
2019-05-28T07:03:30.113Z,97933.78
2019-05-28T07:06:07.312Z,97929.70
2019-05-28T07:08:28.950Z,97925.24
2019-05-28T07:10:58.646Z,97927.58
2019-05-28T07:13:27.559Z,97929.63
2019-05-28T07:15:56.206Z,97928.25
2019-05-28T07:18:24.880Z,97927.91
2019-05-28T07:20:53.616Z,97921.44
2019-05-28T07:23:22.387Z,97917.61
2019-05-28T07:25:50.974Z,97917.32
2019-05-28T07:28:19.630Z,97924.61
2019-05-28T07:30:48.369Z,97932.48
2019-05-28T07:33:17.047Z,97930.75
2019-05-28T07:35:46.551Z,97934.17
2019-05-28T07:38:15.290Z,97936.08
2019-05-28T07:40:44.244Z,97934.23
2019-05-28T07:43:13.069Z,97936.36
2019-05-28T07:45:41.655Z,97936.58
2019-05-28T07:48:10.145Z,97940.52
2019-05-28T07:50:38.724Z,97948.26
2019-05-28T07:53:07.444Z,97942.50
2019-05-28T07:55:36.091Z,97946.92
2019-05-28T07:58:04.895Z,97949.24
2019-05-28T08:00:41.247Z,97944.45
2019-05-28T08:03:10.422Z,97946.27
2019-05-28T08:05:39.207Z,97949.86
2019-05-28T08:08:10.581Z,97944.79
2019-05-28T08:10:40.097Z,97935.47
2019-05-28T08:13:08.991Z,97938.91
2019-05-28T08:15:37.563Z,97941.51
2019-05-28T08:18:06.440Z,97940.02
2019-05-28T08:20:35.689Z,97943.02
2019-05-28T08:23:04.415Z,97942.56
2019-05-28T08:25:46.956Z,97944.58
2019-05-28T08:28:18.644Z,97950.57
2019-05-28T08:30:34.346Z,97944.36
2019-05-28T08:33:03.014Z,97950.04
2019-05-28T08:35:31.713Z,97952.90
2019-05-28T08:38:00.341Z,97958.70
2019-05-28T08:40:29.275Z,97958.92
2019-05-28T08:42:57.931Z,97953.70
2019-05-28T08:45:26.450Z,97956.19
2019-05-28T08:47:55.155Z,97945.45
2019-05-28T08:50:33.868Z,97959.91
2019-05-28T08:52:54.301Z,97953.45
2019-05-28T08:55:23.093Z,97949.17
2019-05-28T08:57:51.682Z,97950.57
2019-05-28T09:00:43.991Z,97954.27
2019-05-28T09:03:13.146Z,97952.50
2019-05-28T09:05:41.890Z,97953.77
2019-05-28T09:08:10.465Z,97950.91
2019-05-28T09:10:39.105Z,97951.31
2019-05-28T09:13:07.748Z,97956.43
2019-05-28T09:15:36.262Z,97958.37
2019-05-28T09:18:05.388Z,97959.84
2019-05-28T09:20:34.109Z,97957.28
2019-05-28T09:23:02.866Z,97958.09
2019-05-28T09:25:31.309Z,97956.89
2019-05-28T09:27:59.795Z,97954.83
2019-05-28T09:30:28.346Z,97961.35
2019-05-28T09:32:56.901Z,97962.20
2019-05-28T09:35:41.197Z,97961.42
2019-05-28T09:37:55.600Z,97961.42
2019-05-28T09:40:24.283Z,97968.30
2019-05-28T09:42:52.804Z,97967.18
2019-05-28T09:45:23.263Z,97969.86
2019-05-28T09:47:55.040Z,97965.57
2019-05-28T09:50:30.555Z,97961.79
2019-05-28T09:52:55.045Z,97960.36
2019-05-28T09:55:22.505Z,97958.28
2019-05-28T09:57:50.954Z,97960.75
2019-05-28T10:00:22.279Z,97958.89
2019-05-28T10:02:51.918Z,97965.44
2019-05-28T13:52:12.304Z,98021.39
2019-05-28T13:54:39.921Z,98026.09
2019-05-28T13:57:08.400Z,98025.52
2019-05-28T13:59:36.870Z,98028.91
2019-05-28T14:02:05.423Z,98023.34
2019-05-28T14:04:33.872Z,98031.55
2019-05-28T14:07:02.436Z,98024.27
2019-05-28T14:09:30.901Z,98028.53
2019-05-28T14:11:59.336Z,98030.01
2019-05-28T14:14:27.888Z,98034.45
2019-05-28T14:16:56.342Z,98034.41
2019-05-28T14:19:24.828Z,98041.85
2019-05-28T14:21:53.286Z,98048.92
2019-05-28T14:24:21.787Z,98047.52
2019-05-28T14:26:50.321Z,98059.75
2019-05-28T14:29:18.809Z,98057.48
2019-05-28T14:31:47.267Z,98065.30
2019-05-28T14:34:15.824Z,98063.20
2019-05-28T14:36:44.271Z,98062.77
2019-05-28T14:39:12.775Z,98062.34
2019-05-28T14:41:41.220Z,98074.45
2019-05-28T14:44:09.740Z,98081.41
2019-05-28T14:46:38.228Z,98101.45
2019-05-28T14:49:07.907Z,98116.93
2019-05-28T14:51:36.830Z,98115.77
2019-05-28T14:54:05.424Z,98115.41
2019-05-28T14:56:33.928Z,98115.88
2019-05-28T14:59:02.395Z,98119.11
2019-05-28T15:01:30.896Z,98117.47
2019-05-28T15:03:59.341Z,98127.41
2019-05-28T15:06:27.847Z,98131.62
2019-05-28T15:08:56.299Z,98133.00
2019-05-28T15:11:24.803Z,98134.23
2019-05-28T15:13:53.245Z,98137.09
2019-05-28T15:17:14.920Z,98145.78
2019-05-28T15:18:58.234Z,98166.28
2019-05-28T15:21:26.688Z,98174.53
2019-05-28T15:23:55.187Z,98169.48
2019-05-28T15:26:23.633Z,98171.27
2019-05-28T15:28:52.148Z,98167.88
2019-05-28T15:31:20.588Z,98176.08
2019-05-28T15:33:49.075Z,98186.08
2019-05-28T15:36:17.523Z,98193.39
2019-05-28T15:38:46.023Z,98198.34
2019-05-28T15:41:14.529Z,98200.30
2019-05-28T15:43:43.031Z,98195.56
2019-05-28T15:46:11.483Z,98190.37
2019-05-28T15:48:39.915Z,98192.77
2019-05-28T15:51:08.431Z,98207.88
2019-05-28T15:53:36.853Z,98219.28
2019-05-28T15:56:05.355Z,98216.78
2019-05-28T15:58:33.801Z,98225.20
2019-05-28T16:01:02.406Z,98224.82
2019-05-28T16:03:30.882Z,98232.48
2019-05-28T16:05:59.424Z,98231.95
2019-05-28T16:08:27.873Z,98237.72
2019-05-28T16:10:56.371Z,98233.59
2019-05-28T16:13:24.829Z,98230.44
2019-05-28T16:15:53.315Z,98233.51
2019-05-28T16:18:21.752Z,98231.27
2019-05-28T16:20:50.252Z,98234.92
2019-05-28T16:23:18.705Z,98233.59
2019-05-28T16:25:47.209Z,98245.50
2019-05-28T16:28:15.652Z,98237.98
2019-05-28T16:30:44.108Z,98242.54
2019-05-28T16:33:12.602Z,98247.13
2019-05-28T16:35:41.032Z,98244.55
2019-05-28T16:38:09.512Z,98241.36
2019-05-28T16:40:37.952Z,98241.70
2019-05-28T16:43:06.472Z,98238.45
2019-05-28T16:45:34.909Z,98239.81
2019-05-28T16:48:03.425Z,98250.73
2019-05-28T16:50:31.872Z,98253.89
2019-05-28T16:53:00.358Z,98254.42
2019-05-28T16:55:28.807Z,98256.05
2019-05-28T16:57:57.279Z,98251.98
2019-05-28T17:00:25.868Z,98254.04
2019-05-28T17:02:54.350Z,98255.06
2019-05-28T17:05:22.789Z,98256.55
2019-05-28T17:07:51.342Z,98258.59
2019-05-28T17:10:32.170Z,98258.41
2019-05-28T17:12:50.185Z,98262.34
2019-05-28T17:15:19.482Z,98265.53
2019-05-28T17:17:47.927Z,98273.16
2019-05-28T17:20:16.755Z,98273.02
2019-05-28T17:22:45.203Z,98274.59
2019-05-28T17:25:13.901Z,98279.02
2019-05-28T17:27:42.341Z,98285.63
2019-05-28T17:30:19.284Z,98290.84
2019-05-28T17:32:41.239Z,98294.92
2019-05-28T17:35:10.572Z,98295.91
2019-05-28T17:37:39.031Z,98301.14
2019-05-28T17:40:08.146Z,98299.92
2019-05-28T17:42:36.680Z,98315.11
2019-05-28T17:45:06.790Z,98314.83
2019-05-28T17:47:43.345Z,98312.23
2019-05-28T17:50:09.813Z,98317.03
2019-05-28T17:52:38.226Z,98313.43
2019-05-28T17:55:07.448Z,98319.55
2019-05-28T17:57:35.975Z,98320.81
2019-05-28T18:00:08.180Z,98331.66
2019-05-28T18:02:36.711Z,98328.12
2019-05-28T18:05:06.852Z,98318.29
2019-05-28T18:07:35.919Z,98319.16
2019-05-28T18:10:06.567Z,98324.86
2019-05-28T18:12:35.057Z,98330.30
2019-05-28T18:15:05.011Z,98326.32
2019-05-28T18:17:33.504Z,98324.76
2019-05-28T18:20:02.006Z,98333.92
2019-05-28T18:22:30.527Z,98339.23
2019-05-28T18:24:58.969Z,98342.21
2019-05-28T18:27:28.333Z,98343.73
2019-05-28T18:29:56.782Z,98348.91
2019-05-28T18:32:25.289Z,98348.91
2019-05-28T18:34:53.740Z,98347.48
2019-05-28T18:37:22.303Z,98353.64
2019-05-28T18:39:50.751Z,98357.20
2019-05-28T18:42:19.266Z,98358.08
2019-05-28T18:44:47.718Z,98362.45
2019-05-28T18:47:16.245Z,98368.31
2019-05-28T18:49:44.660Z,98370.87
2019-05-28T18:52:13.128Z,98369.09
2019-05-28T18:54:41.616Z,98381.94
2019-05-28T18:57:10.070Z,98385.50
2019-05-28T18:59:38.679Z,98385.53
2019-05-28T19:02:07.480Z,98393.05
2019-05-28T19:04:35.986Z,98394.80
2019-05-28T19:07:04.496Z,98392.69
2019-05-28T19:09:32.993Z,98393.14
2019-05-28T19:12:01.444Z,98398.12
2019-05-28T19:14:29.940Z,98393.86
2019-05-28T19:16:58.382Z,98404.41
2019-05-28T19:19:26.883Z,98412.08
2019-05-28T19:21:55.350Z,98414.33
2019-05-28T19:24:23.780Z,98416.48
2019-05-28T19:26:52.269Z,98419.89
2019-05-28T19:29:20.722Z,98426.98
2019-05-28T19:31:49.224Z,98421.16
2019-05-28T19:34:17.672Z,98423.36
2019-05-28T19:36:46.913Z,98427.25
2019-05-28T19:39:15.704Z,98431.30
2019-05-28T19:41:53.598Z,98438.38
2019-05-28T19:44:14.347Z,98443.21
2019-05-28T19:46:42.829Z,98448.38
2019-05-28T19:49:11.352Z,98444.05
2019-05-28T19:51:40.123Z,98452.14
2019-05-28T19:54:08.712Z,98461.40
2019-05-28T19:56:37.291Z,98459.81
2019-05-28T19:59:05.802Z,98459.67
2019-05-28T20:01:34.394Z,98470.69
2019-05-28T20:04:02.947Z,98471.17
2019-05-28T20:06:31.382Z,98476.08
2019-05-28T20:08:59.889Z,98484.09
2019-05-28T20:11:28.347Z,98487.68
2019-05-28T20:13:56.852Z,98486.70
2019-05-28T20:16:25.679Z,98494.66
2019-05-28T20:18:54.157Z,98493.41
2019-05-28T20:21:22.608Z,98497.48
2019-05-28T20:23:52.629Z,98503.70
2019-05-28T20:26:21.359Z,98506.95
2019-05-28T20:28:58.709Z,98515.82
2019-05-28T20:31:20.020Z,98517.13
2019-05-28T20:33:48.505Z,98522.76
2019-05-28T20:36:16.947Z,98529.44
2019-05-28T20:38:45.503Z,98527.76
2019-05-28T20:41:14.024Z,98536.91
2019-05-28T20:43:42.458Z,98539.33
2019-05-28T20:46:10.967Z,98542.42
2019-05-28T20:48:39.432Z,98549.31
2019-05-28T20:51:19.652Z,98554.22
2019-05-28T20:53:38.146Z,98551.45
2019-05-28T20:56:06.638Z,98559.86
2019-05-28T20:58:40.107Z,98562.49
2019-05-28T21:01:05.444Z,98562.95
2019-05-28T21:03:33.901Z,98567.70
2019-05-28T21:06:02.457Z,98568.53
2019-05-28T21:08:30.907Z,98571.40
2019-05-28T21:10:59.556Z,98573.58
2019-05-28T21:13:28.055Z,98571.35
2019-05-28T21:15:56.886Z,98574.44
2019-05-28T21:18:25.597Z,98582.38
2019-05-28T21:20:54.032Z,98589.48
2019-05-28T21:23:22.750Z,98591.66
2019-05-28T21:25:52.135Z,98600.56
2019-05-28T21:28:20.967Z,98597.48
2019-05-28T21:30:50.590Z,98610.75
2019-05-28T21:33:19.267Z,98610.33
2019-05-28T21:35:47.719Z,98615.28
2019-05-28T21:38:16.201Z,98620.64
2019-05-28T21:40:44.644Z,98631.36
2019-05-28T21:43:13.122Z,98630.61
2019-05-28T21:45:41.635Z,98641.25
2019-05-28T21:48:10.147Z,98636.41
2019-05-28T21:50:38.585Z,98639.97
2019-05-28T21:53:07.026Z,98647.55
2019-05-28T21:55:35.519Z,98654.68
2019-05-28T21:58:04.427Z,98650.27
2019-05-28T22:00:46.284Z,98656.53
2019-05-28T22:03:14.886Z,98663.66
2019-05-28T22:05:43.458Z,98663.25
2019-05-28T22:08:11.885Z,98669.06
2019-05-28T22:10:40.445Z,98675.70
2019-05-28T22:13:20.332Z,98674.35
2019-05-28T22:15:39.573Z,98681.51
2019-05-28T22:18:08.531Z,98692.08
2019-05-28T22:20:37.223Z,98689.36
2019-05-28T22:23:05.733Z,98695.57
2019-05-28T22:25:34.285Z,98702.70
2019-05-28T22:28:02.909Z,98702.72
2019-05-28T22:30:31.507Z,98708.88
2019-05-28T22:33:00.121Z,98711.13
2019-05-28T22:35:28.609Z,98703.22
2019-05-28T22:37:57.242Z,98707.16
2019-05-28T22:40:25.689Z,98707.56
2019-05-28T22:42:54.248Z,98712.89
2019-05-28T22:45:22.831Z,98719.48
2019-05-28T22:47:51.799Z,98723.45
2019-05-28T22:50:23.126Z,98729.30
2019-05-28T22:52:51.508Z,98735.06
2019-05-28T22:55:20.094Z,98741.28
2019-05-28T22:57:48.579Z,98742.60
2019-05-28T23:00:17.869Z,98746.58
2019-05-28T23:02:46.500Z,98748.83
2019-05-28T23:05:15.174Z,98752.39
2019-05-28T23:07:43.744Z,98747.98
2019-05-28T23:10:12.624Z,98750.20
2019-05-28T23:12:41.071Z,98759.88
2019-05-28T23:15:10.562Z,98765.63
2019-05-28T23:17:39.175Z,98769.66
2019-05-28T23:20:10.963Z,98769.27
2019-05-28T23:22:39.815Z,98770.92
2019-05-28T23:25:09.677Z,98772.70
2019-05-28T23:27:38.533Z,98771.84
2019-05-28T23:30:22.437Z,98776.31
2019-05-28T23:32:38.746Z,98785.56
2019-05-28T23:35:08.956Z,98780.71
2019-05-28T23:37:37.503Z,98786.51
2019-05-28T23:40:09.163Z,98793.55
2019-05-28T23:42:37.933Z,98791.79
2019-05-28T23:45:07.870Z,98804.53
2019-05-28T23:47:36.623Z,98795.33
2019-05-28T23:50:06.801Z,98804.14
2019-05-28T23:52:35.548Z,98810.34
2019-05-28T23:55:05.722Z,98814.34
2019-05-28T23:57:34.476Z,98826.66
